createdAt,value
2022-09-10T00:01:33.500Z,7.50
2022-09-10T00:04:02.093Z,7.25
2022-09-10T00:06:31.786Z,7.68
2022-09-10T00:09:01.169Z,8.45
2022-09-10T00:11:32.442Z,7.05
2022-09-10T00:14:04.787Z,8.05
2022-09-10T00:16:32.355Z,7.68
2022-09-10T00:19:01.291Z,8.50
2022-09-10T00:21:30.080Z,8.05
2022-09-10T00:23:57.088Z,7.40
2022-09-10T00:26:30.294Z,7.75
2022-09-10T00:29:01.512Z,8.07
2022-09-10T00:31:30.521Z,8.30
2022-09-10T00:33:58.545Z,7.25
2022-09-10T00:36:39.736Z,6.68
2022-09-10T00:39:09.586Z,7.13
2022-09-10T00:41:38.170Z,7.70
2022-09-10T00:44:07.553Z,8.20
2022-09-10T00:46:43.675Z,8.10
2022-09-10T00:49:17.856Z,7.95
2022-09-10T00:51:47.164Z,8.02
2022-09-10T00:54:17.415Z,7.70
2022-09-10T00:56:45.357Z,7.88
2022-09-10T00:59:16.564Z,7.30
2022-09-10T01:01:43.543Z,7.88
2022-09-10T01:04:10.999Z,7.95
2022-09-10T01:06:40.455Z,7.45
2022-09-10T01:09:08.183Z,7.60
2022-09-10T01:12:04.379Z,7.05
2022-09-10T01:14:43.763Z,7.10
2022-09-10T01:17:26.223Z,7.75
2022-09-10T01:19:56.274Z,8.10
2022-09-10T01:23:00.343Z,6.75
2022-09-10T01:25:51.472Z,7.00
2022-09-10T01:28:40.520Z,7.85
2022-09-10T01:31:54.711Z,7.50
2022-09-10T01:34:34.567Z,7.20
2022-09-10T01:37:10.455Z,7.50
2022-09-10T01:39:39.279Z,7.75
2022-09-10T01:42:06.768Z,7.40
2022-09-10T01:44:49.485Z,7.60
2022-09-10T01:47:45.818Z,6.75
2022-09-10T01:50:33.681Z,6.78
2022-09-10T01:53:06.330Z,7.35
2022-09-10T01:55:44.454Z,7.35
2022-09-10T01:58:34.751Z,7.63
2022-09-10T02:01:34.042Z,7.68
2022-09-10T02:04:05.945Z,7.10
2022-09-10T02:06:36.102Z,7.85
2022-09-10T02:09:03.525Z,7.45
2022-09-10T02:11:30.487Z,7.00
2022-09-10T02:13:58.342Z,7.00
2022-09-10T02:16:34.519Z,7.15
2022-09-10T02:19:03.184Z,7.30
2022-09-10T02:21:32.076Z,7.25
2022-09-10T02:24:06.089Z,7.50
2022-09-10T02:26:33.617Z,7.60
2022-09-10T02:29:02.026Z,7.40
2022-09-10T02:31:28.862Z,7.78
2022-09-10T02:33:55.892Z,7.45
2022-09-10T02:36:26.019Z,6.97
2022-09-10T02:38:53.696Z,7.32
2022-09-10T02:41:25.531Z,6.93
2022-09-10T02:43:52.968Z,7.25
2022-09-10T02:46:20.266Z,7.68
2022-09-10T02:48:47.313Z,8.57
2022-09-10T02:51:13.955Z,8.10
2022-09-10T02:53:40.695Z,7.15
2022-09-10T02:56:07.870Z,7.90
2022-09-10T02:58:35.324Z,7.20
2022-09-10T03:01:10.749Z,7.78
2022-09-10T03:03:37.818Z,7.38
2022-09-10T03:06:05.368Z,6.90
2022-09-10T03:08:32.307Z,7.88
2022-09-10T03:10:59.601Z,8.63
2022-09-10T03:13:27.769Z,8.10
2022-09-10T03:15:55.757Z,7.75
2022-09-10T03:18:23.203Z,7.40
2022-09-10T03:20:51.125Z,7.10
2022-09-10T03:23:18.828Z,7.65
2022-09-10T03:25:49.652Z,7.85
2022-09-10T03:28:16.671Z,7.45
2022-09-10T03:30:43.452Z,7.63
2022-09-10T03:33:11.855Z,7.30
2022-09-10T03:35:38.859Z,7.85
2022-09-10T03:38:05.882Z,7.30
2022-09-10T03:40:34.274Z,7.95
2022-09-10T03:43:01.366Z,8.05
2022-09-10T03:45:29.365Z,6.75
2022-09-10T03:47:56.063Z,6.57
2022-09-10T03:50:22.751Z,7.10
2022-09-10T03:52:50.176Z,7.22
2022-09-10T03:55:17.906Z,7.80
2022-09-10T03:57:45.863Z,7.22
2022-09-10T04:00:12.656Z,7.07
2022-09-10T04:02:41.536Z,7.28
2022-09-10T04:05:09.161Z,7.10
2022-09-10T04:07:36.848Z,7.75
2022-09-10T04:10:04.300Z,7.53
2022-09-10T04:12:31.007Z,7.43
2022-09-10T04:14:57.724Z,8.38
2022-09-10T04:17:25.522Z,7.15
2022-09-10T04:19:52.170Z,7.18
2022-09-10T04:22:18.795Z,7.15
2022-09-10T04:24:45.407Z,7.03
2022-09-10T04:27:12.039Z,7.45
2022-09-10T04:29:38.634Z,7.28
2022-09-10T04:32:05.726Z,6.90
2022-09-10T04:34:32.454Z,7.95
2022-09-10T04:36:59.168Z,7.60
2022-09-10T04:39:25.786Z,8.07
2022-09-10T04:41:52.455Z,7.60
2022-09-10T04:44:20.163Z,8.13
2022-09-10T04:46:47.887Z,7.57
2022-09-10T04:49:14.656Z,7.72
2022-09-10T04:51:41.302Z,6.97
2022-09-10T04:54:07.954Z,7.93
2022-09-10T04:56:35.068Z,6.90
2022-09-10T04:59:01.774Z,6.82
2022-09-10T05:01:28.992Z,7.63
2022-09-10T05:03:55.679Z,7.47
2022-09-10T05:06:23.383Z,7.97
2022-09-10T05:08:50.827Z,7.18
2022-09-10T05:11:19.835Z,8.02
2022-09-10T05:13:46.552Z,7.55
2022-09-10T05:16:13.349Z,8.27
2022-09-10T05:18:40.098Z,8.02
2022-09-10T05:21:06.921Z,9.25
2022-09-10T05:23:33.546Z,7.35
2022-09-10T05:26:00.238Z,7.57
2022-09-10T05:28:26.870Z,7.32
2022-09-10T05:30:53.566Z,6.93
2022-09-10T05:33:20.200Z,7.20
2022-09-10T05:35:51.829Z,6.63
2022-09-10T05:38:19.306Z,7.72
2022-09-10T05:40:46.022Z,6.82
2022-09-10T05:43:12.892Z,7.35
2022-09-10T05:45:39.561Z,7.65
2022-09-10T05:48:06.428Z,7.80
2022-09-10T05:50:33.099Z,8.95
2022-09-10T05:53:00.935Z,7.07
2022-09-10T05:55:27.659Z,8.07
2022-09-10T05:57:54.304Z,8.57
2022-09-10T06:00:20.969Z,6.70
2022-09-10T06:02:48.193Z,6.95
2022-09-10T06:05:15.374Z,6.60
2022-09-10T06:07:42.014Z,6.40
2022-09-10T06:10:09.329Z,6.78
2022-09-10T06:12:36.067Z,7.03
2022-09-10T06:15:03.835Z,6.10
2022-09-10T06:17:30.655Z,6.60
2022-09-10T06:19:57.296Z,6.45
2022-09-10T06:22:23.984Z,6.38
2022-09-10T06:24:50.926Z,6.65
2022-09-10T06:27:17.599Z,6.00
2022-09-10T06:29:44.262Z,5.55
2022-09-10T06:32:10.859Z,6.25
2022-09-10T06:34:37.520Z,5.97
2022-09-10T06:37:04.382Z,5.70
2022-09-10T06:39:31.124Z,5.47
2022-09-10T06:41:57.837Z,5.85
2022-09-10T06:44:24.565Z,5.75
2022-09-10T06:47:32.442Z,6.38
2022-09-10T06:49:41.303Z,5.97
2022-09-10T06:52:07.917Z,7.05
2022-09-10T06:54:34.613Z,6.00
2022-09-10T06:57:01.590Z,5.60
2022-09-10T06:59:28.207Z,5.93
2022-09-10T07:01:55.352Z,6.05
2022-09-10T07:04:22.069Z,6.93
2022-09-10T07:06:48.680Z,6.05
2022-09-10T07:09:15.796Z,6.38
2022-09-10T07:11:42.492Z,6.95
2022-09-10T07:14:13.076Z,6.53
2022-09-10T07:16:44.729Z,6.63
2022-09-10T07:19:14.975Z,5.03
2022-09-10T07:21:41.729Z,5.45
2022-09-10T07:24:10.931Z,5.55
2022-09-10T07:26:38.774Z,5.85
2022-09-10T07:29:05.871Z,6.55
2022-09-10T07:31:35.157Z,5.78
2022-09-10T07:34:03.641Z,7.20
2022-09-10T07:36:30.635Z,7.38
2022-09-10T07:38:58.910Z,6.80
2022-09-10T07:41:30.116Z,7.22
2022-09-10T07:43:57.972Z,7.13
2022-09-10T07:46:25.869Z,6.30
2022-09-10T07:48:59.942Z,6.53
2022-09-10T07:51:29.286Z,6.13
2022-09-10T07:53:57.743Z,6.97
2022-09-10T07:56:24.802Z,6.55
2022-09-10T07:58:53.908Z,6.80
2022-09-10T08:01:21.173Z,6.68
2022-09-10T08:03:48.229Z,7.35
2022-09-10T08:06:15.863Z,6.72
2022-09-10T08:08:43.318Z,6.45
2022-09-10T08:11:17.401Z,7.28
2022-09-10T08:13:46.284Z,6.90
2022-09-10T08:16:15.930Z,6.38
2022-09-10T08:18:45.575Z,6.30
2022-09-10T08:21:12.215Z,7.93
2022-09-10T08:23:41.814Z,6.10
2022-09-10T08:26:08.567Z,5.90
2022-09-10T08:28:36.104Z,5.60
2022-09-10T08:31:11.854Z,5.80
2022-09-10T08:33:41.372Z,5.90
2022-09-10T08:36:12.101Z,5.03
2022-09-10T08:38:40.212Z,5.60
2022-09-10T08:41:28.304Z,5.15
2022-09-10T08:44:10.214Z,4.50
2022-09-10T08:46:48.556Z,4.70
2022-09-10T08:49:40.966Z,4.50
2022-09-10T08:52:21.437Z,4.70
2022-09-10T08:55:25.158Z,4.93
2022-09-10T08:58:03.391Z,4.43
2022-09-10T09:00:34.293Z,3.97
2022-09-10T09:03:06.993Z,4.63
2022-09-10T09:05:49.152Z,4.47
2022-09-10T09:08:22.671Z,4.55
2022-09-10T09:10:55.469Z,4.13
2022-09-10T09:13:26.586Z,4.38
2022-09-10T09:16:27.274Z,3.67
2022-09-10T09:19:00.394Z,4.22
2022-09-10T09:21:53.351Z,4.43
2022-09-10T09:24:30.061Z,4.80
2022-09-10T09:27:10.166Z,4.57
2022-09-10T09:29:43.938Z,4.15
2022-09-10T09:32:16.009Z,4.10
2022-09-10T09:35:09.640Z,4.35
2022-09-10T09:37:38.409Z,4.45
2022-09-10T09:40:13.590Z,4.03
2022-09-10T09:42:50.009Z,4.47
2022-09-10T09:45:35.568Z,3.97
2022-09-10T09:48:02.747Z,4.35
2022-09-10T09:50:34.187Z,3.72
2022-09-10T09:53:00.892Z,4.75
2022-09-10T09:55:41.249Z,5.05
2022-09-10T09:58:26.886Z,4.72
2022-09-10T10:01:04.576Z,4.60
2022-09-10T10:04:03.075Z,4.40
2022-09-10T10:06:32.842Z,3.60
2022-09-10T10:09:08.208Z,3.92
2022-09-10T10:11:54.468Z,4.13
2022-09-10T10:14:21.127Z,3.70
2022-09-10T10:16:49.576Z,4.85
2022-09-10T10:19:37.067Z,4.28
2022-09-10T10:22:18.614Z,3.70
2022-09-10T10:24:48.066Z,4.97
2022-09-10T10:27:32.996Z,4.25
2022-09-10T10:30:06.220Z,4.47
2022-09-10T10:32:57.448Z,3.83
2022-09-10T10:35:32.988Z,3.92
2022-09-10T10:38:25.655Z,4.25
2022-09-10T10:41:11.635Z,4.10
2022-09-10T10:43:42.236Z,4.10
2022-09-10T10:46:21.054Z,3.97
2022-09-10T10:49:05.302Z,4.10
2022-09-10T10:51:47.201Z,4.43
2022-09-10T10:54:37.477Z,4.65
2022-09-10T10:57:43.372Z,4.45
2022-09-10T11:03:00.674Z,3.75
2022-09-10T11:05:33.596Z,4.22
2022-09-10T11:08:06.363Z,3.90
2022-09-10T11:10:36.827Z,4.30
2022-09-10T11:13:03.494Z,4.00
2022-09-10T11:15:45.611Z,3.75
2022-09-10T11:18:18.887Z,3.95
2022-09-10T11:21:07.591Z,4.63
2022-09-10T11:23:45.481Z,4.03
2022-09-10T11:26:21.400Z,3.90
2022-09-10T11:29:08.397Z,4.25
2022-09-10T11:31:50.277Z,5.00
2022-09-10T11:34:38.276Z,4.15
2022-09-10T11:37:10.739Z,4.45
2022-09-10T11:39:47.304Z,4.53
2022-09-10T11:42:27.662Z,3.97
2022-09-10T11:45:14.140Z,4.43
2022-09-10T11:47:45.947Z,4.53
2022-09-10T11:50:33.720Z,4.85
2022-09-10T11:53:02.447Z,4.97
2022-09-10T11:56:12.314Z,4.90
2022-09-10T11:59:12.987Z,4.20
2022-09-10T12:02:17.431Z,5.15
2022-09-10T12:05:02.976Z,5.00
2022-09-10T12:07:35.386Z,5.00
2022-09-10T12:10:11.028Z,4.72
2022-09-10T12:12:43.573Z,4.57
2022-09-10T12:15:18.711Z,4.53
2022-09-10T12:17:49.238Z,3.47
2022-09-10T12:20:28.082Z,4.47
2022-09-10T12:22:56.200Z,5.28
2022-09-10T12:25:31.645Z,4.65
2022-09-10T12:28:03.388Z,4.82
2022-09-10T12:30:35.759Z,5.60
2022-09-10T12:33:28.227Z,5.07
2022-09-10T12:35:55.207Z,4.90
2022-09-10T12:38:49.133Z,4.93
2022-09-10T12:41:24.836Z,5.40
2022-09-10T12:43:57.728Z,5.13
2022-09-10T12:46:25.957Z,4.55
2022-09-10T12:49:14.256Z,4.88
2022-09-10T12:51:58.263Z,6.05
2022-09-10T12:55:07.213Z,5.03
2022-09-10T12:57:52.424Z,5.20
2022-09-10T13:03:08.717Z,5.10
2022-09-10T13:05:44.183Z,5.95
2022-09-10T13:08:25.949Z,6.00
2022-09-10T13:10:57.384Z,5.22
2022-09-10T13:13:33.794Z,5.60
2022-09-10T13:16:02.426Z,5.40
2022-09-10T13:18:32.146Z,4.78
2022-09-10T13:20:59.349Z,5.50
2022-09-10T13:23:48.075Z,4.82
2022-09-10T13:26:39.160Z,5.22
2022-09-10T13:29:38.398Z,5.25
2022-09-10T13:32:16.380Z,4.45
2022-09-10T13:35:21.638Z,4.55
2022-09-10T13:37:53.751Z,5.25
2022-09-10T13:40:43.158Z,6.18
2022-09-10T13:43:39.777Z,5.82
2022-09-10T13:46:19.835Z,5.68
2022-09-10T13:48:52.266Z,5.78
2022-09-10T13:51:28.138Z,5.25
2022-09-10T13:54:00.169Z,5.85
2022-09-10T13:56:29.133Z,5.88
2022-09-10T13:59:01.071Z,5.88
2022-09-10T14:01:54.145Z,6.03
2022-09-10T14:04:44.976Z,6.00
2022-09-10T14:07:25.474Z,6.43
2022-09-10T14:10:00.486Z,6.40
2022-09-10T14:12:29.523Z,5.68
2022-09-10T14:15:01.811Z,5.97
2022-09-10T14:17:34.439Z,5.50
2022-09-10T14:20:06.259Z,5.40
2022-09-10T14:22:33.173Z,6.43
2022-09-10T14:25:04.348Z,6.10
2022-09-10T14:27:32.700Z,6.30
2022-09-10T14:30:18.547Z,6.72
2022-09-10T14:32:46.335Z,5.50
2022-09-10T14:35:59.193Z,5.65
2022-09-10T14:38:31.529Z,5.78
2022-09-10T14:41:05.442Z,6.05
2022-09-10T14:43:38.147Z,6.55
2022-09-10T14:46:08.017Z,6.40
2022-09-10T14:48:37.183Z,6.25
2022-09-10T14:51:25.612Z,6.55
2022-09-10T14:53:57.165Z,5.85
2022-09-10T14:56:33.860Z,6.50
2022-09-10T14:59:20.177Z,7.13
2022-09-10T15:01:48.554Z,6.00
2022-09-10T15:04:18.455Z,7.68
2022-09-10T15:06:45.516Z,6.93
2022-09-10T15:09:14.979Z,7.43
2022-09-10T15:12:12.140Z,7.95
2022-09-10T15:14:39.172Z,7.65
2022-09-10T15:17:05.938Z,7.72
2022-09-10T15:19:32.706Z,7.00
2022-09-10T15:21:59.737Z,7.63
2022-09-10T15:24:26.656Z,7.18
2022-09-10T15:26:53.290Z,7.97
2022-09-10T15:29:20.227Z,7.30
2022-09-10T15:31:47.187Z,7.97
2022-09-10T15:34:14.423Z,7.50
2022-09-10T15:36:41.931Z,7.38
2022-09-10T15:39:12.525Z,8.45
2022-09-10T15:41:44.185Z,8.75
2022-09-10T15:44:11.515Z,8.35
2022-09-10T15:46:45.445Z,7.15
2022-09-10T15:49:12.281Z,7.90
2022-09-10T15:51:39.899Z,7.93
2022-09-10T15:54:07.010Z,7.18
2022-09-10T15:56:33.746Z,7.82
2022-09-10T15:59:01.020Z,8.65
2022-09-10T16:01:28.980Z,7.93
2022-09-10T16:03:58.399Z,8.32
2022-09-10T16:06:31.349Z,6.93
2022-09-10T16:09:01.492Z,8.07
2022-09-10T16:11:31.231Z,9.15
2022-09-10T16:14:03.568Z,7.88
2022-09-10T16:16:34.081Z,8.40
2022-09-10T16:19:00.835Z,8.60
2022-09-10T16:21:31.039Z,8.25
2022-09-10T16:23:59.470Z,7.93
2022-09-10T16:26:32.095Z,8.15
2022-09-10T16:29:00.478Z,7.55
2022-09-10T16:31:33.096Z,8.45
2022-09-10T16:34:03.642Z,8.07
2022-09-10T16:36:33.032Z,7.78
2022-09-10T16:39:03.959Z,8.15
2022-09-10T16:41:33.058Z,8.25
2022-09-10T16:44:00.702Z,8.43
2022-09-10T16:46:28.282Z,8.82
2022-09-10T16:48:56.024Z,11.10
2022-09-10T16:51:24.528Z,13.05
2022-09-10T16:54:02.596Z,11.32
2022-09-10T16:56:44.148Z,10.18
2022-09-10T16:59:20.385Z,13.75
2022-09-10T17:01:48.608Z,8.88
2022-09-10T17:04:25.915Z,10.75
2022-09-10T17:06:55.951Z,9.48
2022-09-10T17:09:22.762Z,8.93
2022-09-10T17:11:49.526Z,9.10
2022-09-10T17:14:16.163Z,9.43
2022-09-10T17:16:43.661Z,9.10
2022-09-10T17:19:23.667Z,9.25
2022-09-10T17:21:55.316Z,9.20
2022-09-10T17:24:26.977Z,10.10
2022-09-10T17:26:55.381Z,9.57
2022-09-10T17:29:24.233Z,10.63
2022-09-10T17:31:52.139Z,9.07
2022-09-10T17:34:24.997Z,10.27
2022-09-10T17:36:52.349Z,9.38
2022-09-10T17:39:19.283Z,9.30
2022-09-10T17:41:46.462Z,9.80
2022-09-10T17:44:14.550Z,9.75
2022-09-10T17:46:42.820Z,9.77
2022-09-10T17:49:13.278Z,9.95
2022-09-10T17:51:40.369Z,10.10
2022-09-10T17:54:08.381Z,11.30
2022-09-10T17:56:35.303Z,10.75
2022-09-10T17:59:04.344Z,10.05
2022-09-10T18:01:33.783Z,10.32
2022-09-10T18:04:00.752Z,10.55
2022-09-10T18:06:29.105Z,10.68
2022-09-10T18:09:00.840Z,13.77
2022-09-10T18:11:30.975Z,9.40
2022-09-10T18:13:59.080Z,9.43
2022-09-10T18:16:28.712Z,10.93
2022-09-10T18:19:00.029Z,10.73
2022-09-10T18:21:32.795Z,12.35
2022-09-10T18:24:02.519Z,11.68
2022-09-10T18:26:32.313Z,11.52
2022-09-10T18:29:17.756Z,18.25
2022-09-10T18:31:50.930Z,14.20
2022-09-10T18:34:23.972Z,10.15
2022-09-10T18:36:57.766Z,11.18
2022-09-10T18:39:26.269Z,11.50
2022-09-10T18:41:52.929Z,11.48
2022-09-10T18:44:23.152Z,11.93
2022-09-10T18:46:51.149Z,11.20
2022-09-10T18:49:21.399Z,12.32
2022-09-10T18:51:48.691Z,12.15
2022-09-10T18:54:16.985Z,14.68
2022-09-10T18:56:48.856Z,16.10
2022-09-10T18:59:20.986Z,18.70
2022-09-10T19:01:49.725Z,15.50
2022-09-10T19:04:21.761Z,11.27
2022-09-10T19:06:49.698Z,10.25
2022-09-10T19:09:18.969Z,13.63
2022-09-10T19:11:47.359Z,11.85
2022-09-10T19:14:29.964Z,11.00
2022-09-10T19:16:58.158Z,11.95
2022-09-10T19:19:36.389Z,10.82
2022-09-10T19:22:10.176Z,12.73
2022-09-10T19:24:54.157Z,9.77
2022-09-10T19:27:22.522Z,8.45
2022-09-10T19:29:50.043Z,9.02
2022-09-10T19:32:17.191Z,8.07
2022-09-10T19:34:44.273Z,8.18
2022-09-10T19:37:11.356Z,8.73
2022-09-10T19:39:38.073Z,8.98
2022-09-10T19:42:05.847Z,8.65
2022-09-10T19:44:33.745Z,8.48
2022-09-10T19:47:00.622Z,9.25
2022-09-10T19:49:27.743Z,9.40
2022-09-10T19:51:54.734Z,8.80
2022-09-10T19:54:22.819Z,9.82
2022-09-10T19:56:49.886Z,8.23
2022-09-10T19:59:16.993Z,8.35
2022-09-10T20:01:46.291Z,8.50
2022-09-10T20:04:14.239Z,8.32
2022-09-10T20:06:42.795Z,8.60
2022-09-10T20:09:12.767Z,7.68
2022-09-10T20:11:39.704Z,8.05
2022-09-10T20:14:14.047Z,7.85
2022-09-10T20:16:43.843Z,7.88
2022-09-10T20:19:13.401Z,8.02
2022-09-10T20:21:40.362Z,8.18
2022-09-10T20:24:08.118Z,7.43
2022-09-10T20:26:41.263Z,7.60
2022-09-10T20:29:12.479Z,7.30
2022-09-10T20:31:41.360Z,7.57
2022-09-10T20:34:12.255Z,6.75
2022-09-10T20:36:42.356Z,7.28
2022-09-10T20:39:15.948Z,7.65
2022-09-10T20:41:43.833Z,7.30
2022-09-10T20:44:13.129Z,6.45
2022-09-10T20:46:41.686Z,7.13
2022-09-10T20:49:10.435Z,7.22
2022-09-10T20:51:38.945Z,6.95
2022-09-10T20:54:07.918Z,6.80
2022-09-10T20:56:34.681Z,7.03
2022-09-10T20:59:02.209Z,7.65
2022-09-10T21:01:33.617Z,6.80
2022-09-10T21:04:01.864Z,7.00
2022-09-10T21:06:31.366Z,6.68
2022-09-10T21:08:58.543Z,7.05
2022-09-10T21:11:27.923Z,7.15
2022-09-10T21:14:06.659Z,7.03
2022-09-10T21:16:36.460Z,7.05
2022-09-10T21:19:07.736Z,7.75
2022-09-10T21:21:35.436Z,8.02
2022-09-10T21:24:05.431Z,7.22
2022-09-10T21:26:34.327Z,7.85
2022-09-10T21:29:04.421Z,7.40
2022-09-10T21:31:32.214Z,7.07
2022-09-10T21:34:03.066Z,6.75
2022-09-10T21:36:32.165Z,6.75
2022-09-10T21:39:00.740Z,6.55
2022-09-10T21:41:31.200Z,6.93
2022-09-10T21:43:59.860Z,7.55
2022-09-10T21:46:27.531Z,6.75
2022-09-10T21:48:55.158Z,7.80
2022-09-10T21:51:23.177Z,7.22
2022-09-10T21:53:55.067Z,7.07
2022-09-10T21:56:23.983Z,6.57
2022-09-10T21:58:50.883Z,7.03
2022-09-10T22:01:23.533Z,6.82
2022-09-10T22:03:52.832Z,7.65
2022-09-10T22:06:24.917Z,7.13
2022-09-10T22:08:55.208Z,7.28
2022-09-10T22:11:25.644Z,7.35
2022-09-10T22:13:54.633Z,7.10
2022-09-10T22:16:22.761Z,8.02
2022-09-10T22:18:50.058Z,7.45
2022-09-10T22:21:17.735Z,7.47
2022-09-10T22:23:44.772Z,7.70
2022-09-10T22:26:14.251Z,7.72
2022-09-10T22:28:42.141Z,7.07
2022-09-10T22:31:10.414Z,7.70
2022-09-10T22:33:42.945Z,7.35
2022-09-10T22:36:15.874Z,7.55
2022-09-10T22:38:43.438Z,7.20
2022-09-10T22:41:10.520Z,7.50
2022-09-10T22:43:40.732Z,7.22
2022-09-10T22:46:07.879Z,7.30
2022-09-10T22:48:40.162Z,7.40
2022-09-10T22:51:11.363Z,7.32
2022-09-10T22:53:41.957Z,6.97
2022-09-10T22:56:09.358Z,7.13
2022-09-10T22:58:36.576Z,6.95
2022-09-10T23:01:08.626Z,7.30
2022-09-10T23:03:36.217Z,7.75
2022-09-10T23:06:12.276Z,6.78
2022-09-10T23:08:40.243Z,7.50
2022-09-10T23:11:12.424Z,7.90
2022-09-10T23:13:39.599Z,7.50
2022-09-10T23:16:11.400Z,6.82
2022-09-10T23:18:40.050Z,7.10
2022-09-10T23:21:07.593Z,7.60
2022-09-10T23:23:35.291Z,7.35
2022-09-10T23:26:09.764Z,6.78
2022-09-10T23:28:37.609Z,7.07
2022-09-10T23:31:08.380Z,6.97
2022-09-10T23:33:35.205Z,7.20
2022-09-10T23:36:03.840Z,7.43
2022-09-10T23:38:31.562Z,7.13
2022-09-10T23:41:02.260Z,7.53
2022-09-10T23:43:34.283Z,6.88
2022-09-10T23:46:01.817Z,7.13
2022-09-10T23:48:29.631Z,7.47
2022-09-10T23:50:57.219Z,6.70
2022-09-10T23:53:25.325Z,6.78
2022-09-10T23:55:52.202Z,7.53
2022-09-10T23:58:19.952Z,7.03
